createdAt,value
2022-09-26T00:23:02.073Z,12.20
2022-09-26T01:36:19.898Z,11.90
2022-09-26T01:42:35.441Z,12.00
2022-09-26T01:48:38.980Z,11.90
2022-09-26T01:55:03.040Z,11.70
2022-09-26T02:00:30.250Z,11.60
2022-09-26T02:36:56.813Z,11.50
2022-09-26T02:42:52.984Z,11.50
2022-09-26T02:55:14.510Z,11.40
2022-09-26T03:01:04.054Z,11.50
2022-09-26T03:06:34.523Z,11.40
2022-09-26T03:24:44.952Z,11.40
2022-09-26T03:30:03.036Z,11.30
2022-09-26T03:35:06.866Z,11.30
2022-09-26T03:40:11.336Z,11.30
2022-09-26T03:45:14.041Z,11.30
2022-09-26T03:50:17.627Z,11.30
2022-09-26T03:55:19.712Z,11.30
2022-09-26T04:00:21.742Z,11.30
2022-09-26T04:05:25.289Z,11.20
2022-09-26T04:10:27.806Z,11.20
2022-09-26T04:15:30.032Z,11.30
2022-09-26T04:20:33.424Z,11.30
2022-09-26T04:25:38.274Z,11.30
2022-09-26T04:30:40.323Z,11.40
2022-09-26T04:35:43.939Z,11.40
2022-09-26T04:40:46.405Z,11.40
2022-09-26T04:45:48.487Z,11.30
2022-09-26T04:58:32.530Z,11.30
2022-09-26T05:02:53.003Z,11.30
2022-09-26T05:07:57.102Z,11.40
2022-09-26T05:13:00.451Z,11.30
2022-09-26T05:18:02.620Z,11.30
2022-09-26T05:23:07.635Z,11.20
2022-09-26T05:28:09.693Z,11.20
2022-09-26T05:33:13.551Z,11.20
2022-09-26T05:38:16.993Z,11.20
2022-09-26T05:43:19.005Z,11.20
2022-09-26T05:48:21.048Z,11.20
2022-09-26T05:53:25.835Z,11.20
2022-09-26T05:58:32.301Z,11.30
2022-09-26T06:03:35.626Z,11.30
2022-09-26T06:08:41.685Z,11.30
2022-09-26T06:13:45.890Z,11.40
2022-09-26T06:18:49.214Z,11.40
2022-09-26T06:23:52.657Z,11.60
2022-09-26T06:28:57.062Z,12.20
2022-09-26T06:33:59.120Z,12.30
2022-09-26T06:39:02.708Z,12.50
2022-09-26T06:44:06.540Z,12.60
2022-09-26T06:49:08.630Z,12.50
2022-09-26T06:54:12.105Z,12.40
2022-09-26T06:59:16.922Z,12.40
2022-09-26T07:04:19.036Z,12.70
2022-09-26T07:09:22.572Z,12.70
2022-09-26T07:14:24.779Z,12.80
2022-09-26T07:19:27.099Z,12.80
2022-09-26T07:24:30.531Z,12.90
2022-09-26T07:29:35.413Z,13.00
2022-09-26T07:34:37.480Z,13.20
2022-09-26T07:39:41.617Z,13.30
2022-09-26T07:50:15.844Z,13.40
2022-09-26T07:55:21.000Z,13.40
2022-09-26T08:00:24.128Z,13.40
2022-09-26T08:05:26.375Z,13.40
2022-09-26T08:10:29.869Z,13.50
2022-09-26T08:20:39.631Z,14.10
2022-09-26T08:26:45.660Z,14.20
2022-09-26T08:45:11.453Z,14.40
2022-09-26T08:50:40.947Z,14.30
2022-09-26T08:56:24.470Z,14.40
2022-09-26T09:08:13.516Z,14.30
2022-09-26T09:20:18.381Z,14.40
2022-09-26T09:38:22.176Z,14.20
2022-09-26T09:49:45.388Z,14.30
2022-09-26T09:55:49.604Z,14.60
2022-09-26T10:07:43.023Z,15.90
2022-09-26T10:12:48.281Z,16.20
2022-09-26T10:18:24.221Z,16.00
2022-09-26T10:23:33.609Z,16.40
2022-09-26T10:29:39.756Z,17.00
2022-09-26T10:34:41.903Z,17.30
2022-09-26T10:40:20.759Z,17.40
2022-09-26T10:45:29.581Z,17.30
2022-09-26T10:50:36.702Z,17.70
2022-09-26T10:55:43.834Z,17.80
2022-09-26T11:00:50.593Z,18.40
2022-09-26T11:05:59.138Z,18.50
2022-09-26T11:11:11.271Z,18.80
2022-09-26T11:16:20.576Z,18.30
2022-09-26T11:21:34.851Z,17.90
2022-09-26T11:26:43.665Z,18.00
2022-09-26T11:32:30.571Z,18.40
2022-09-26T11:38:58.905Z,19.90
2022-09-26T11:51:12.587Z,18.70
2022-09-26T11:57:10.793Z,18.50
2022-09-26T12:02:56.466Z,18.20
2022-09-26T12:15:03.730Z,17.80
2022-09-26T12:21:04.543Z,17.90
2022-09-26T12:26:52.386Z,18.20
2022-09-26T12:32:46.956Z,18.40
2022-09-26T12:44:48.248Z,18.60
2022-09-26T12:51:01.894Z,18.80
2022-09-26T12:56:59.733Z,18.90
2022-09-26T13:02:55.782Z,19.00
2022-09-26T13:20:54.625Z,20.30
2022-09-26T13:27:26.652Z,21.50
2022-09-26T13:39:09.905Z,22.80
2022-09-26T13:45:08.484Z,23.10
2022-09-26T13:51:00.316Z,22.80
2022-09-26T13:57:05.925Z,22.50
2022-09-26T14:03:06.697Z,23.00
2022-09-26T14:09:25.049Z,23.10
2022-09-26T14:15:38.465Z,22.70
2022-09-26T14:21:49.457Z,22.30
2022-09-26T14:33:45.341Z,21.50
2022-09-26T14:51:22.501Z,21.10
2022-09-26T15:03:13.922Z,20.00
2022-09-26T15:09:15.051Z,19.40
2022-09-26T15:15:55.260Z,18.80
2022-09-26T15:21:39.097Z,18.40
2022-09-26T15:27:31.294Z,18.20
2022-09-26T15:39:39.373Z,17.70
2022-09-26T15:45:34.517Z,17.50
2022-09-26T15:57:52.179Z,17.30
2022-09-26T16:03:57.535Z,17.20
2022-09-26T16:09:58.085Z,16.90
2022-09-26T16:15:39.298Z,16.70
2022-09-26T16:20:42.213Z,16.60
2022-09-26T16:25:56.853Z,16.50
2022-09-26T16:31:25.407Z,16.30
2022-09-26T16:36:30.794Z,16.10
2022-09-26T16:42:00.117Z,15.90
2022-09-26T16:47:06.221Z,15.80
2022-09-26T16:52:28.188Z,15.60
2022-09-26T16:57:34.419Z,15.60
2022-09-26T17:02:42.460Z,15.50
2022-09-26T17:07:48.455Z,15.40
2022-09-26T17:12:53.393Z,15.20
2022-09-26T17:17:58.579Z,15.10
2022-09-26T17:23:17.124Z,15.00
2022-09-26T17:28:32.541Z,14.90
2022-09-26T17:33:44.440Z,14.80
2022-09-26T17:38:47.754Z,14.70
2022-09-26T17:44:01.624Z,14.60
2022-09-26T17:49:08.747Z,14.70
2022-09-26T17:54:19.090Z,14.60
2022-09-26T17:59:25.015Z,14.70
2022-09-26T18:04:35.345Z,14.70
2022-09-26T18:09:39.179Z,14.60
2022-09-26T18:14:48.340Z,14.40
2022-09-26T18:19:55.918Z,14.20
2022-09-26T18:25:06.823Z,14.10
2022-09-26T18:30:13.703Z,14.10
2022-09-26T18:35:20.671Z,14.00
2022-09-26T18:40:24.808Z,14.00
2022-09-26T18:45:31.481Z,14.00
2022-09-26T18:50:38.735Z,14.00
2022-09-26T18:55:59.236Z,14.00
2022-09-26T19:01:05.887Z,14.00
2022-09-26T19:06:20.237Z,13.90
2022-09-26T19:11:26.313Z,14.00
2022-09-26T19:16:32.813Z,14.10
2022-09-26T19:21:40.922Z,14.10
2022-09-26T19:26:49.610Z,14.20
2022-09-26T19:31:52.785Z,14.10
2022-09-26T19:37:05.266Z,14.10
2022-09-26T19:42:10.845Z,14.10
2022-09-26T19:47:18.251Z,14.00
2022-09-26T19:52:24.783Z,13.90
2022-09-26T19:57:30.463Z,13.80
2022-09-26T20:02:35.282Z,13.80
2022-09-26T20:07:39.489Z,13.80
2022-09-26T20:12:45.590Z,13.60
2022-09-26T20:17:54.202Z,13.60
2022-09-26T20:22:58.756Z,13.50
2022-09-26T20:28:04.221Z,13.30
2022-09-26T20:33:09.223Z,13.00
2022-09-26T20:38:27.370Z,12.80
2022-09-26T20:43:34.304Z,12.80
2022-09-26T20:48:40.781Z,12.80
2022-09-26T20:53:45.684Z,12.80
2022-09-26T20:58:48.577Z,12.70
2022-09-26T21:03:56.225Z,12.70
2022-09-26T21:09:02.942Z,12.60
2022-09-26T21:14:09.233Z,12.50
2022-09-26T21:19:20.786Z,12.50
2022-09-26T21:24:32.319Z,12.60
2022-09-26T21:29:36.607Z,12.40
2022-09-26T21:34:41.240Z,12.20
2022-09-26T21:39:49.448Z,12.20
2022-09-26T21:44:59.475Z,12.30
2022-09-26T21:50:12.303Z,12.20
2022-09-26T21:55:23.095Z,12.20
2022-09-26T22:00:27.287Z,12.30
2022-09-26T22:05:33.620Z,12.30
2022-09-26T22:10:39.448Z,12.30
2022-09-26T22:15:45.720Z,12.20
2022-09-26T22:20:48.902Z,12.20
2022-09-26T22:25:59.292Z,12.10
2022-09-26T22:31:04.732Z,12.10
2022-09-26T22:36:08.468Z,12.20
2022-09-26T22:41:17.326Z,12.20
2022-09-26T22:46:22.436Z,12.20
2022-09-26T22:51:32.764Z,12.20
2022-09-26T22:56:38.230Z,12.20
2022-09-26T23:01:42.695Z,12.10
2022-09-26T23:06:48.843Z,12.00
2022-09-26T23:12:06.591Z,12.10
2022-09-26T23:17:12.507Z,12.10
2022-09-26T23:22:19.484Z,12.10
2022-09-26T23:27:28.252Z,12.00
2022-09-26T23:32:32.047Z,12.00
2022-09-26T23:37:36.104Z,11.90
2022-09-26T23:42:40.603Z,11.80
2022-09-26T23:47:43.796Z,11.80
2022-09-26T23:52:47.220Z,11.70
2022-09-26T23:57:54.356Z,11.50
